createdAt,value
2018-12-20T00:00:58.618Z,32.53
2018-12-20T00:03:26.028Z,31.90
2018-12-20T00:05:53.295Z,32.75
2018-12-20T00:08:20.577Z,31.60
2018-12-20T00:10:47.821Z,31.93
2018-12-20T00:13:15.202Z,33.13
2018-12-20T00:15:42.555Z,32.63
2018-12-20T00:18:09.881Z,30.08
2018-12-20T00:20:37.163Z,32.73
2018-12-20T00:23:04.646Z,30.45
2018-12-20T00:25:31.896Z,30.72
2018-12-20T00:27:59.102Z,31.60
2018-12-20T00:30:26.338Z,30.48
2018-12-20T00:32:53.645Z,30.17
2018-12-20T00:35:20.988Z,29.63
2018-12-20T00:37:48.298Z,33.28
2018-12-20T00:40:15.571Z,32.80
2018-12-20T00:42:42.890Z,31.37
2018-12-20T00:45:10.311Z,32.20
2018-12-20T00:47:37.585Z,31.90
2018-12-20T00:50:05.560Z,31.95
2018-12-20T00:52:32.810Z,32.50
2018-12-20T00:55:00.165Z,30.30
2018-12-20T00:57:27.572Z,29.90
2018-12-20T00:59:55.000Z,30.62
2018-12-20T01:02:22.367Z,31.77
2018-12-20T01:04:49.662Z,30.12
2018-12-20T01:07:17.020Z,32.10
2018-12-20T01:09:44.371Z,28.85
2018-12-20T01:12:11.673Z,29.15
2018-12-20T01:14:45.279Z,29.77
2018-12-20T01:17:08.181Z,30.75
2018-12-20T01:19:35.420Z,27.58
2018-12-20T01:22:02.919Z,28.77
2018-12-20T01:24:30.346Z,31.50
2018-12-20T01:26:57.590Z,28.57
2018-12-20T01:29:25.009Z,29.32
2018-12-20T01:31:52.437Z,30.20
2018-12-20T01:34:19.681Z,31.95
2018-12-20T01:36:46.883Z,32.65
2018-12-20T01:39:14.376Z,32.25
2018-12-20T01:41:41.602Z,30.75
2018-12-20T01:44:09.083Z,27.17
2018-12-20T01:46:36.546Z,29.92
2018-12-20T01:49:04.292Z,29.37
2018-12-20T01:51:31.581Z,27.80
2018-12-20T01:53:59.106Z,29.55
2018-12-20T01:56:26.498Z,27.48
2018-12-20T01:58:53.864Z,32.17
2018-12-20T02:01:21.359Z,28.57
2018-12-20T02:03:48.731Z,28.25
2018-12-20T02:06:16.104Z,28.65
2018-12-20T02:08:43.341Z,27.65
2018-12-20T02:11:10.824Z,28.77
2018-12-20T02:13:38.228Z,27.82
2018-12-20T02:16:05.537Z,27.70
2018-12-20T02:18:32.796Z,27.50
2018-12-20T02:21:00.032Z,29.07
2018-12-20T02:23:27.341Z,27.35
2018-12-20T02:25:54.597Z,29.42
2018-12-20T02:28:21.932Z,28.90
2018-12-20T02:30:49.430Z,29.67
2018-12-20T02:33:16.713Z,28.02
2018-12-20T02:35:44.203Z,29.12
2018-12-20T02:38:11.649Z,27.90
2018-12-20T02:40:38.988Z,27.75
2018-12-20T02:43:06.239Z,27.00
2018-12-20T02:45:33.771Z,28.35
2018-12-20T02:48:01.067Z,29.42
2018-12-20T02:50:28.553Z,27.27
2018-12-20T02:52:55.901Z,27.62
2018-12-20T02:55:23.136Z,29.02
2018-12-20T02:57:50.366Z,26.93
2018-12-20T03:00:17.978Z,28.07
2018-12-20T03:02:45.482Z,28.35
2018-12-20T03:05:13.017Z,26.23
2018-12-20T03:07:40.529Z,26.12
2018-12-20T03:10:08.163Z,28.52
2018-12-20T03:12:35.519Z,29.52
2018-12-20T03:15:03.897Z,23.87
2018-12-20T03:17:31.333Z,25.62
2018-12-20T03:19:58.962Z,26.70
2018-12-20T03:22:26.588Z,25.00
2018-12-20T03:24:54.182Z,27.77
2018-12-20T03:27:21.649Z,26.27
2018-12-20T03:29:49.096Z,26.42
2018-12-20T03:32:16.405Z,25.25
2018-12-20T03:34:43.737Z,27.60
2018-12-20T03:37:11.132Z,26.15
2018-12-20T03:39:38.382Z,25.05
2018-12-20T03:42:05.777Z,26.05
2018-12-20T03:44:33.193Z,24.12
2018-12-20T03:47:00.565Z,25.00
2018-12-20T03:49:27.838Z,26.55
2018-12-20T03:51:55.148Z,28.07
2018-12-20T03:54:23.056Z,45.90
2018-12-20T03:56:50.324Z,36.90
2018-12-20T03:59:17.882Z,32.80
2018-12-20T04:01:45.222Z,30.72
2018-12-20T04:04:12.693Z,29.75
2018-12-20T04:06:40.002Z,28.42
2018-12-20T04:09:07.659Z,30.30
2018-12-20T04:11:35.101Z,29.30
2018-12-20T04:14:03.143Z,29.20
2018-12-20T04:16:30.719Z,27.02
2018-12-20T04:18:58.291Z,24.72
2018-12-20T04:21:25.628Z,23.73
2018-12-20T04:23:53.015Z,24.12
2018-12-20T04:26:21.233Z,24.02
2018-12-20T04:28:48.463Z,24.10
2018-12-20T04:31:15.699Z,24.77
2018-12-20T04:33:43.274Z,22.32
2018-12-20T04:36:10.799Z,22.50
2018-12-20T04:38:38.498Z,21.68
2018-12-20T04:41:06.179Z,23.32
2018-12-20T04:43:33.698Z,23.15
2018-12-20T04:46:01.029Z,21.50
2018-12-20T04:48:28.566Z,22.35
2018-12-20T04:50:55.873Z,21.27
2018-12-20T04:53:23.420Z,19.65
2018-12-20T04:55:50.939Z,18.67
2018-12-20T04:58:18.390Z,19.30
2018-12-20T05:00:45.758Z,18.40
2018-12-20T05:03:13.354Z,17.67
2018-12-20T05:05:40.729Z,18.50
2018-12-20T05:08:08.075Z,17.75
2018-12-20T05:10:35.396Z,16.10
2018-12-20T05:13:02.889Z,17.17
2018-12-20T05:15:30.266Z,17.42
2018-12-20T05:17:57.780Z,18.17
2018-12-20T05:20:25.251Z,18.62
2018-12-20T05:22:52.774Z,17.87
2018-12-20T05:25:20.206Z,18.70
2018-12-20T05:27:47.753Z,18.52
2018-12-20T05:30:15.252Z,17.50
2018-12-20T05:32:42.594Z,17.02
2018-12-20T05:35:10.163Z,17.02
2018-12-20T05:37:37.689Z,16.67
2018-12-20T05:40:06.570Z,17.60
2018-12-20T05:42:33.901Z,16.62
2018-12-20T05:45:01.597Z,16.65
2018-12-20T05:47:29.154Z,16.85
2018-12-20T05:49:56.685Z,18.17
2018-12-20T05:52:24.082Z,18.00
2018-12-20T05:54:51.398Z,18.27
2018-12-20T05:57:18.650Z,18.27
2018-12-20T05:59:45.964Z,18.07
2018-12-20T06:02:13.191Z,17.23
2018-12-20T06:04:40.551Z,16.75
2018-12-20T06:07:08.009Z,16.60
2018-12-20T06:09:35.528Z,16.00
2018-12-20T06:12:02.884Z,17.00
2018-12-20T06:14:30.281Z,17.00
2018-12-20T06:16:57.479Z,14.95
2018-12-20T06:19:24.784Z,16.00
2018-12-20T06:21:52.028Z,14.20
2018-12-20T06:24:19.235Z,15.18
2018-12-20T06:26:46.448Z,15.55
2018-12-20T06:29:13.670Z,14.40
2018-12-20T06:31:40.908Z,13.08
2018-12-20T06:34:08.100Z,14.10
2018-12-20T06:36:35.322Z,11.80
2018-12-20T06:39:05.017Z,12.53
2018-12-20T06:41:32.236Z,10.98
2018-12-20T06:44:06.984Z,12.60
2018-12-20T06:46:28.853Z,11.73
2018-12-20T06:48:56.072Z,10.60
2018-12-20T06:51:23.289Z,10.70
2018-12-20T06:53:50.521Z,10.90
2018-12-20T06:56:17.717Z,10.23
2018-12-20T06:58:44.933Z,11.28
2018-12-20T07:01:12.149Z,11.28
2018-12-20T07:03:39.394Z,11.65
2018-12-20T07:06:06.592Z,10.95
2018-12-20T07:08:33.817Z,9.90
2018-12-20T07:11:01.028Z,11.28
2018-12-20T07:13:28.257Z,11.03
2018-12-20T07:15:55.641Z,11.05
2018-12-20T07:18:22.845Z,11.83
2018-12-20T07:20:50.069Z,11.25
2018-12-20T07:23:17.311Z,10.75
2018-12-20T07:25:44.518Z,12.35
2018-12-20T07:28:11.739Z,11.08
2018-12-20T07:30:38.969Z,10.43
2018-12-20T07:33:06.201Z,11.12
2018-12-20T07:35:33.409Z,11.60
2018-12-20T07:38:00.619Z,10.10
2018-12-20T07:40:27.816Z,11.63
2018-12-20T07:42:55.025Z,11.35
2018-12-20T07:45:22.238Z,11.48
2018-12-20T07:47:49.453Z,10.90
2018-12-20T07:50:16.690Z,11.10
2018-12-20T07:52:43.917Z,9.90
2018-12-20T07:55:11.156Z,9.78
2018-12-20T07:57:38.363Z,10.75
2018-12-20T08:00:05.979Z,10.23
2018-12-20T08:02:33.195Z,9.70
2018-12-20T08:05:00.409Z,9.43
2018-12-20T08:07:27.625Z,10.00
2018-12-20T08:09:54.981Z,9.88
2018-12-20T08:12:22.204Z,9.65
2018-12-20T08:14:49.496Z,9.50
2018-12-20T08:17:16.730Z,9.50
2018-12-20T08:19:43.936Z,10.00
2018-12-20T08:22:11.265Z,9.23
2018-12-20T08:24:38.476Z,8.78
2018-12-20T08:27:05.672Z,9.48
2018-12-20T08:29:32.908Z,8.30
2018-12-20T08:32:00.121Z,8.18
2018-12-20T08:34:27.349Z,8.28
2018-12-20T08:36:54.574Z,7.65
2018-12-20T08:39:21.919Z,7.72
2018-12-20T08:41:49.260Z,8.10
2018-12-20T08:44:16.469Z,6.80
2018-12-20T08:46:44.065Z,7.70
2018-12-20T08:49:11.684Z,6.85
2018-12-20T08:51:39.270Z,8.25
2018-12-20T08:54:06.499Z,7.70
2018-12-20T08:56:33.731Z,7.35
2018-12-20T08:59:00.945Z,7.05
2018-12-20T09:01:28.177Z,6.65
2018-12-20T09:03:55.500Z,6.60
2018-12-20T09:06:22.840Z,5.95
2018-12-20T09:08:50.193Z,6.25
2018-12-20T09:11:17.428Z,6.58
2018-12-20T09:13:44.653Z,5.65
2018-12-20T09:16:11.989Z,6.28
2018-12-20T09:18:39.195Z,5.47
2018-12-20T09:21:06.820Z,6.08
2018-12-20T09:23:34.036Z,6.08
2018-12-20T09:26:01.267Z,6.65
2018-12-20T09:28:28.492Z,5.60
2018-12-20T09:30:55.704Z,6.75
2018-12-20T09:33:23.044Z,5.65
2018-12-20T09:35:50.368Z,6.75
2018-12-20T09:38:17.588Z,6.30
2018-12-20T09:40:44.817Z,5.70
2018-12-20T09:43:12.951Z,6.10
2018-12-20T09:45:40.229Z,4.20
2018-12-20T09:48:07.593Z,5.70
2018-12-20T09:50:34.905Z,5.55
2018-12-20T09:53:02.141Z,6.00
2018-12-20T09:55:29.369Z,5.17
2018-12-20T09:57:56.606Z,5.30
2018-12-20T10:00:23.942Z,5.87
2018-12-20T10:02:51.164Z,4.72
2018-12-20T10:05:18.385Z,4.55
2018-12-20T10:07:45.605Z,4.47
2018-12-20T10:10:12.933Z,5.70
2018-12-20T10:12:40.152Z,4.70
2018-12-20T10:15:07.661Z,5.20
2018-12-20T10:17:34.937Z,4.30
2018-12-20T10:20:02.430Z,5.25
2018-12-20T10:22:29.673Z,4.62
2018-12-20T10:24:56.906Z,4.92
2018-12-20T10:27:31.204Z,4.25
2018-12-20T10:29:53.380Z,4.05
2018-12-20T10:32:20.801Z,3.77
2018-12-20T10:34:48.028Z,3.77
2018-12-20T10:37:15.273Z,3.90
2018-12-20T10:39:42.489Z,3.50
2018-12-20T10:42:09.738Z,3.98
2018-12-20T10:44:37.081Z,4.30
2018-12-20T10:47:09.967Z,3.95
2018-12-20T10:49:37.202Z,4.30
2018-12-20T10:52:04.451Z,5.10
2018-12-20T10:54:31.693Z,4.08
2018-12-20T10:56:58.925Z,3.70
2018-12-20T10:59:26.174Z,4.35
2018-12-20T11:01:59.372Z,3.60
2018-12-20T11:04:29.995Z,3.58
2018-12-20T11:07:02.961Z,3.80
2018-12-20T11:09:35.859Z,3.10
2018-12-20T11:12:08.677Z,4.83
2018-12-20T11:14:36.437Z,4.03
2018-12-20T11:17:03.755Z,4.55
2018-12-20T11:19:30.976Z,3.27
2018-12-20T11:21:58.198Z,3.70
2018-12-20T11:24:25.541Z,4.10
2018-12-20T11:26:52.756Z,3.72
2018-12-20T11:29:19.988Z,3.80
2018-12-20T11:31:47.201Z,3.45
2018-12-20T11:34:14.433Z,3.12
2018-12-20T11:36:41.653Z,3.65
2018-12-20T11:39:08.989Z,3.20
2018-12-20T11:41:36.245Z,3.35
2018-12-20T11:44:03.596Z,3.33
2018-12-20T11:46:30.832Z,3.40
2018-12-20T11:48:58.043Z,3.15
2018-12-20T11:51:25.279Z,3.10
2018-12-20T11:53:52.518Z,3.80
2018-12-20T11:56:19.746Z,3.15
2018-12-20T11:58:46.964Z,3.70
2018-12-20T12:01:14.363Z,3.27
2018-12-20T12:03:41.586Z,3.22
2018-12-20T12:06:09.057Z,3.10
2018-12-20T12:08:36.277Z,3.05
2018-12-20T12:11:03.518Z,3.30
2018-12-20T12:13:30.740Z,3.75
2018-12-20T12:15:57.953Z,3.20
2018-12-20T12:18:25.185Z,3.02
2018-12-20T12:20:52.521Z,2.85
2018-12-20T12:23:19.752Z,3.40
2018-12-20T12:25:46.969Z,2.60
2018-12-20T12:28:14.188Z,2.58
2018-12-20T12:30:41.708Z,2.60
2018-12-20T12:33:09.037Z,3.52
2018-12-20T12:35:36.345Z,3.20
2018-12-20T12:38:03.800Z,3.70
2018-12-20T12:40:31.140Z,2.45
2018-12-20T12:42:58.448Z,3.02
2018-12-20T12:45:25.746Z,2.65
2018-12-20T12:48:03.227Z,3.15
2018-12-20T12:50:28.366Z,2.92
2018-12-20T12:52:55.717Z,3.08
2018-12-20T12:55:23.235Z,2.50
2018-12-20T12:57:50.549Z,2.62
2018-12-20T13:00:19.756Z,2.80
2018-12-20T13:02:47.132Z,2.80
2018-12-20T13:05:14.511Z,2.40
2018-12-20T13:07:41.941Z,1.50
2018-12-20T13:10:09.391Z,1.85
2018-12-20T13:12:36.813Z,2.00
2018-12-20T13:15:05.216Z,1.50
2018-12-20T13:17:32.533Z,1.60
2018-12-20T13:19:59.831Z,1.95
2018-12-20T13:22:27.148Z,1.47
2018-12-20T13:24:54.565Z,1.47
2018-12-20T13:27:21.892Z,1.25
2018-12-20T13:29:49.201Z,1.45
2018-12-20T13:32:16.508Z,1.40
2018-12-20T13:34:43.830Z,1.20
2018-12-20T13:37:15.874Z,1.40
2018-12-20T13:39:40.467Z,1.50
2018-12-20T13:42:07.812Z,1.92
2018-12-20T13:44:35.178Z,1.82
2018-12-20T13:47:02.590Z,2.10
2018-12-20T13:49:29.888Z,2.05
2018-12-20T13:51:57.183Z,1.32
2018-12-20T13:54:24.604Z,1.90
2018-12-20T13:56:51.897Z,1.45
2018-12-20T13:59:19.249Z,1.80
2018-12-20T14:01:46.533Z,1.62
2018-12-20T14:04:13.845Z,1.90
2018-12-20T14:06:41.128Z,1.60
2018-12-20T14:09:08.845Z,1.98
2018-12-20T14:11:36.900Z,2.27
2018-12-20T14:14:04.497Z,2.15
2018-12-20T14:16:31.890Z,1.95
2018-12-20T14:18:59.194Z,2.42
2018-12-20T14:21:26.565Z,1.87
2018-12-20T14:23:53.948Z,2.10
2018-12-20T14:26:21.305Z,1.90
2018-12-20T14:28:48.726Z,2.10
2018-12-20T14:31:16.077Z,1.47
2018-12-20T14:33:43.482Z,1.50
2018-12-20T14:36:10.902Z,1.95
2018-12-20T14:38:38.184Z,1.67
2018-12-20T14:41:05.533Z,1.75
2018-12-20T14:43:32.825Z,1.80
2018-12-20T14:46:00.247Z,1.75
2018-12-20T14:48:29.565Z,1.90
2018-12-20T14:50:56.941Z,2.20
2018-12-20T14:53:24.245Z,1.80
2018-12-20T14:55:51.545Z,1.77
2018-12-20T14:58:18.858Z,1.98
2018-12-20T15:00:46.172Z,2.15
2018-12-20T15:03:13.517Z,2.55
2018-12-20T15:05:41.043Z,2.37
2018-12-20T15:08:08.385Z,2.50
2018-12-20T15:10:35.796Z,2.10
2018-12-20T15:13:03.131Z,2.30
2018-12-20T15:15:30.434Z,1.90
2018-12-20T15:17:57.748Z,2.58
2018-12-20T15:20:25.051Z,2.77
2018-12-20T15:22:52.343Z,2.67
2018-12-20T15:25:19.677Z,2.20
2018-12-20T15:27:46.997Z,2.15
2018-12-20T15:30:14.300Z,2.45
2018-12-20T15:32:41.589Z,2.27
2018-12-20T15:35:08.880Z,2.77
2018-12-20T15:37:36.276Z,3.10
2018-12-20T15:40:05.336Z,2.98
2018-12-20T15:42:32.768Z,2.85
2018-12-20T15:45:00.189Z,2.70
2018-12-20T15:47:27.573Z,2.80
2018-12-20T15:49:54.877Z,3.05
2018-12-20T15:52:22.189Z,3.70
2018-12-20T15:54:49.459Z,3.30
2018-12-20T15:57:16.744Z,2.87
2018-12-20T15:59:44.104Z,3.50
2018-12-20T16:02:11.493Z,3.42
2018-12-20T16:04:38.833Z,4.03
2018-12-20T16:07:06.196Z,3.72
2018-12-20T16:09:33.491Z,3.20
2018-12-20T16:12:00.948Z,3.72
2018-12-20T16:14:28.557Z,3.40
2018-12-20T16:16:55.860Z,4.08
2018-12-20T16:19:23.381Z,3.30
2018-12-20T16:21:50.715Z,3.40
2018-12-20T16:24:18.056Z,3.77
2018-12-20T16:26:45.437Z,3.05
2018-12-20T16:29:12.888Z,3.70
2018-12-20T16:31:40.186Z,3.30
2018-12-20T16:34:07.636Z,3.10
2018-12-20T16:36:35.164Z,5.20
2018-12-20T16:39:04.785Z,3.35
2018-12-20T16:41:32.080Z,3.60
2018-12-20T16:43:59.496Z,3.75
2018-12-20T16:46:26.825Z,3.70
2018-12-20T16:48:54.185Z,3.60
2018-12-20T16:51:21.759Z,3.15
2018-12-20T16:53:49.060Z,3.20
2018-12-20T16:56:16.565Z,3.05
2018-12-20T16:58:43.996Z,3.22
2018-12-20T17:01:11.311Z,4.25
2018-12-20T17:03:38.732Z,3.40
2018-12-20T17:06:06.188Z,2.75
2018-12-20T17:08:33.481Z,3.00
2018-12-20T17:11:00.758Z,3.15
2018-12-20T17:13:28.076Z,3.37
2018-12-20T17:15:55.374Z,3.15
2018-12-20T17:18:22.720Z,4.17
2018-12-20T17:20:50.002Z,5.83
2018-12-20T17:23:17.309Z,4.33
2018-12-20T17:25:44.600Z,3.77
2018-12-20T17:28:11.876Z,3.42
2018-12-20T17:30:39.205Z,3.30
2018-12-20T17:33:06.616Z,3.87
2018-12-20T17:35:34.084Z,3.05
2018-12-20T17:38:01.399Z,3.20
2018-12-20T17:40:28.998Z,4.00
2018-12-20T17:42:56.630Z,3.47
2018-12-20T17:45:24.029Z,4.10
2018-12-20T17:47:51.327Z,3.37
2018-12-20T17:50:18.996Z,3.72
2018-12-20T17:52:46.333Z,3.10
2018-12-20T17:55:13.688Z,3.10
2018-12-20T17:57:41.256Z,3.08
2018-12-20T18:00:10.953Z,4.10
2018-12-20T18:02:38.236Z,4.33
2018-12-20T18:05:07.143Z,3.08
2018-12-20T18:07:34.772Z,2.67
2018-12-20T18:10:02.232Z,3.00
2018-12-20T18:12:29.687Z,3.30
2018-12-20T18:14:56.956Z,2.95
2018-12-20T18:17:24.247Z,3.72
2018-12-20T18:19:51.555Z,3.45
2018-12-20T18:22:18.870Z,3.87
2018-12-20T18:24:46.234Z,2.60
2018-12-20T18:27:13.823Z,3.33
2018-12-20T18:29:41.384Z,2.30
2018-12-20T18:32:09.064Z,2.00
2018-12-20T18:34:36.876Z,2.30
2018-12-20T18:37:04.637Z,2.33
2018-12-20T18:39:32.474Z,2.20
2018-12-20T18:42:00.542Z,2.17
2018-12-20T18:44:28.517Z,1.95
2018-12-20T18:46:55.859Z,2.30
2018-12-20T18:49:23.289Z,2.20
2018-12-20T18:51:50.593Z,1.87
2018-12-20T18:54:17.907Z,2.77
2018-12-20T18:56:45.208Z,1.90
2018-12-20T18:59:12.765Z,2.77
2018-12-20T19:01:40.172Z,1.55
2018-12-20T19:04:07.504Z,1.90
2018-12-20T19:06:35.020Z,1.47
2018-12-20T19:09:04.196Z,2.15
2018-12-20T19:11:31.520Z,2.50
2018-12-20T19:13:58.981Z,2.00
2018-12-20T19:16:26.283Z,2.30
2018-12-20T19:18:53.608Z,2.08
2018-12-20T19:21:20.983Z,2.17
2018-12-20T19:23:48.681Z,2.00
2018-12-20T19:26:16.121Z,2.55
2018-12-20T19:28:43.534Z,2.60
2018-12-20T19:31:10.845Z,2.58
2018-12-20T19:33:38.185Z,3.12
2018-12-20T19:36:05.754Z,2.50
2018-12-20T19:38:33.093Z,2.52
2018-12-20T19:41:00.467Z,2.65
2018-12-20T19:43:27.897Z,2.77
2018-12-20T19:45:55.238Z,3.27
2018-12-20T19:48:22.642Z,3.00
2018-12-20T19:50:50.117Z,3.08
2018-12-20T19:53:17.857Z,2.72
2018-12-20T19:55:45.752Z,2.95
2018-12-20T19:58:13.981Z,2.87
2018-12-20T20:00:42.228Z,3.25
2018-12-20T20:03:10.555Z,2.50
2018-12-20T20:05:39.053Z,2.40
2018-12-20T20:08:06.585Z,2.67
2018-12-20T20:10:34.025Z,3.98
2018-12-20T20:13:01.558Z,2.72
2018-12-20T20:15:29.100Z,3.30
2018-12-20T20:17:56.635Z,2.85
2018-12-20T20:20:24.108Z,3.12
2018-12-20T20:22:51.635Z,3.45
2018-12-20T20:25:19.056Z,2.98
2018-12-20T20:27:46.480Z,2.80
2018-12-20T20:30:14.582Z,3.67
2018-12-20T20:32:42.063Z,3.05
2018-12-20T20:35:09.512Z,3.35
2018-12-20T20:37:37.101Z,3.00
2018-12-20T20:40:06.242Z,2.90
2018-12-20T20:42:33.548Z,3.37
2018-12-20T20:45:01.022Z,3.70
2018-12-20T20:47:28.374Z,3.33
2018-12-20T20:49:55.696Z,3.85
2018-12-20T20:52:23.001Z,3.17
2018-12-20T20:54:50.348Z,3.05
2018-12-20T20:57:17.690Z,3.90
2018-12-20T20:59:50.760Z,3.83
2018-12-20T21:02:14.373Z,3.47
2018-12-20T21:04:41.894Z,3.45
2018-12-20T21:07:09.220Z,3.70
2018-12-20T21:09:36.533Z,3.95
2018-12-20T21:12:04.188Z,3.55
2018-12-20T21:14:31.532Z,4.20
2018-12-20T21:16:58.941Z,4.72
2018-12-20T21:19:26.465Z,3.70
2018-12-20T21:21:53.769Z,3.50
2018-12-20T21:24:21.040Z,3.77
2018-12-20T21:26:48.352Z,3.27
2018-12-20T21:29:15.686Z,2.92
2018-12-20T21:31:43.341Z,4.22
2018-12-20T21:34:10.734Z,3.70
2018-12-20T21:36:38.644Z,3.17
2018-12-20T21:39:06.211Z,4.25
2018-12-20T21:41:33.628Z,4.03
2018-12-20T21:44:00.908Z,3.67
2018-12-20T21:46:28.407Z,4.08
2018-12-20T21:48:55.768Z,3.35
2018-12-20T21:51:23.068Z,3.10
2018-12-20T21:53:54.935Z,3.00
2018-12-20T21:56:20.756Z,3.17
2018-12-20T21:58:48.073Z,3.50
2018-12-20T22:01:15.578Z,2.85
2018-12-20T22:03:42.902Z,3.58
2018-12-20T22:06:10.303Z,3.02
2018-12-20T22:08:37.617Z,3.22
2018-12-20T22:11:04.900Z,3.85
2018-12-20T22:13:32.225Z,3.65
2018-12-20T22:15:59.641Z,3.47
2018-12-20T22:18:26.943Z,3.98
2018-12-20T22:20:54.228Z,3.22
2018-12-20T22:23:21.620Z,3.37
2018-12-20T22:25:48.914Z,3.75
2018-12-20T22:28:16.199Z,3.42
2018-12-20T22:30:43.492Z,3.17
2018-12-20T22:33:10.905Z,3.37
2018-12-20T22:35:38.193Z,3.30
2018-12-20T22:38:05.603Z,3.33
2018-12-20T22:40:32.901Z,4.50
2018-12-20T22:43:00.332Z,3.70
2018-12-20T22:45:27.700Z,3.67
2018-12-20T22:47:55.033Z,3.70
2018-12-20T22:50:22.328Z,4.28
2018-12-20T22:52:49.596Z,3.77
2018-12-20T22:55:16.904Z,4.00
2018-12-20T22:57:45.248Z,3.37
2018-12-20T23:00:13.656Z,4.55
2018-12-20T23:02:40.987Z,3.70
2018-12-20T23:05:08.503Z,3.40
2018-12-20T23:07:35.789Z,4.03
2018-12-20T23:10:03.685Z,4.25
2018-12-20T23:12:30.973Z,3.80
2018-12-20T23:14:58.285Z,3.67
2018-12-20T23:17:25.697Z,3.85
2018-12-20T23:19:52.981Z,4.08
2018-12-20T23:22:20.273Z,4.05
2018-12-20T23:24:47.579Z,3.40
2018-12-20T23:27:14.876Z,4.10
2018-12-20T23:29:42.300Z,3.70
2018-12-20T23:32:09.612Z,3.30
2018-12-20T23:34:36.905Z,3.50
2018-12-20T23:37:04.211Z,3.30
2018-12-20T23:39:31.495Z,3.90
2018-12-20T23:41:58.813Z,2.95
2018-12-20T23:44:26.097Z,2.95
2018-12-20T23:46:53.513Z,3.30
2018-12-20T23:49:20.932Z,5.40
2018-12-20T23:51:48.253Z,3.42
2018-12-20T23:54:15.536Z,2.72
2018-12-20T23:56:42.830Z,2.70
2018-12-20T23:59:10.129Z,2.60
